createdAt,value
2023-04-20T00:00:58.028Z,4.47
2023-04-20T00:03:26.679Z,4.97
2023-04-20T00:05:54.362Z,5.07
2023-04-20T00:08:21.457Z,5.03
2023-04-20T00:10:48.760Z,5.00
2023-04-20T00:13:15.865Z,5.28
2023-04-20T00:15:42.963Z,6.28
2023-04-20T00:18:10.221Z,6.43
2023-04-20T00:20:38.560Z,4.70
2023-04-20T00:23:05.751Z,4.50
2023-04-20T00:25:33.392Z,4.35
2023-04-20T00:28:00.656Z,4.25
2023-04-20T00:30:27.825Z,3.47
2023-04-20T00:32:54.977Z,4.05
2023-04-20T00:35:22.170Z,3.88
2023-04-20T00:37:49.250Z,3.70
2023-04-20T00:40:16.402Z,4.07
2023-04-20T00:42:43.463Z,4.68
2023-04-20T00:45:10.715Z,4.53
2023-04-20T00:47:38.527Z,3.70
2023-04-20T00:52:34.106Z,4.15
2023-04-20T00:55:02.087Z,3.95
2023-04-20T00:57:31.129Z,4.22
2023-04-20T01:00:01.633Z,3.53
2023-04-20T01:02:28.971Z,4.25
2023-04-20T01:04:56.614Z,3.97
2023-04-20T01:07:23.719Z,3.83
2023-04-20T01:09:50.861Z,3.15
2023-04-20T01:12:18.115Z,3.00
2023-04-20T01:14:45.178Z,3.95
2023-04-20T01:17:13.625Z,4.57
2023-04-20T01:19:46.187Z,4.38
2023-04-20T01:22:22.405Z,3.88
2023-04-20T01:24:49.530Z,4.18
2023-04-20T01:27:17.208Z,5.15
2023-04-20T01:29:45.445Z,4.75
2023-04-20T01:32:13.070Z,4.25
2023-04-20T01:34:40.844Z,3.97
2023-04-20T01:37:09.025Z,4.50
2023-04-20T01:39:37.763Z,5.25
2023-04-20T01:42:06.137Z,4.65
2023-04-20T01:44:33.276Z,4.95
2023-04-20T01:47:00.455Z,4.72
2023-04-20T01:49:27.704Z,4.63
2023-04-20T01:51:55.662Z,4.55
2023-04-20T01:54:22.867Z,4.00
2023-04-20T01:56:49.940Z,3.30
2023-04-20T01:59:17.388Z,5.10
2023-04-20T02:01:44.626Z,5.22
2023-04-20T02:04:11.823Z,4.25
2023-04-20T02:06:40.919Z,4.15
2023-04-20T02:09:10.173Z,4.40
2023-04-20T02:11:37.351Z,4.70
2023-04-20T02:14:06.717Z,4.13
2023-04-20T02:19:03.048Z,4.10
2023-04-20T02:21:30.191Z,3.90
2023-04-20T02:23:57.574Z,3.85
2023-04-20T02:26:27.366Z,3.55
2023-04-20T02:28:54.467Z,4.28
2023-04-20T02:31:21.543Z,4.35
2023-04-20T02:33:50.681Z,5.07
2023-04-20T02:36:19.390Z,6.68
2023-04-20T02:38:46.472Z,5.00
2023-04-20T02:41:13.551Z,5.20
2023-04-20T02:43:41.054Z,6.13
2023-04-20T02:46:09.971Z,5.55
2023-04-20T02:48:37.254Z,6.18
2023-04-20T02:51:04.437Z,6.00
2023-04-20T02:53:41.055Z,5.65
2023-04-20T02:56:14.429Z,7.18
2023-04-20T02:58:52.108Z,7.20
2023-04-20T03:01:32.994Z,7.03
2023-04-20T03:04:06.596Z,6.13
2023-04-20T03:06:38.887Z,8.90
2023-04-20T03:09:08.978Z,7.55
2023-04-20T03:11:56.403Z,7.88
2023-04-20T03:14:42.036Z,8.27
2023-04-20T03:17:09.458Z,8.90
2023-04-20T03:19:36.848Z,8.45
2023-04-20T03:22:04.906Z,7.80
2023-04-20T03:24:33.854Z,7.93
2023-04-20T03:27:08.013Z,7.80
2023-04-20T03:29:44.170Z,6.88
2023-04-20T03:32:11.495Z,6.70
2023-04-20T03:34:38.676Z,8.32
2023-04-20T03:37:06.496Z,7.03
2023-04-20T03:39:33.614Z,7.82
2023-04-20T03:42:00.787Z,8.73
2023-04-20T03:44:28.115Z,7.68
2023-04-20T03:46:55.191Z,7.95
2023-04-20T03:49:25.056Z,8.82
2023-04-20T03:51:52.210Z,7.90
2023-04-20T03:54:19.275Z,7.43
2023-04-20T03:56:46.615Z,7.68
2023-04-20T03:59:14.264Z,8.00
2023-04-20T04:01:44.393Z,9.75
2023-04-20T04:04:13.691Z,12.32
2023-04-20T04:06:41.193Z,7.97
2023-04-20T04:09:09.629Z,10.18
2023-04-20T04:11:36.903Z,8.45
2023-04-20T04:14:07.063Z,13.88
2023-04-20T04:16:36.899Z,8.05
2023-04-20T04:19:04.157Z,10.45
2023-04-20T04:21:31.462Z,9.95
2023-04-20T04:24:05.743Z,8.25
2023-04-20T04:29:09.058Z,6.90
2023-04-20T04:31:36.284Z,8.73
2023-04-20T04:34:10.742Z,7.88
2023-04-20T04:36:44.091Z,7.80
2023-04-20T04:39:13.919Z,9.30
2023-04-20T04:41:57.401Z,9.73
2023-04-20T04:44:40.063Z,14.18
2023-04-20T04:47:09.564Z,11.35
2023-04-20T04:49:37.129Z,13.63
2023-04-20T04:52:04.334Z,12.55
2023-04-20T04:54:31.457Z,23.35
2023-04-20T04:56:58.806Z,10.88
2023-04-20T04:59:26.005Z,17.33
2023-04-20T05:01:53.118Z,21.98
2023-04-20T05:04:20.666Z,12.68
2023-04-20T05:06:47.829Z,10.77
2023-04-20T05:09:21.168Z,19.73
2023-04-20T05:11:48.214Z,14.10
2023-04-20T05:14:15.521Z,9.88
2023-04-20T05:16:42.721Z,17.00
2023-04-20T05:19:09.910Z,9.77
2023-04-20T05:21:38.187Z,15.77
2023-04-20T05:24:06.439Z,25.38
2023-04-20T05:26:33.629Z,9.40
2023-04-20T05:29:01.690Z,8.85
2023-04-20T05:31:29.174Z,8.43
2023-04-20T05:33:56.280Z,8.65
2023-04-20T05:36:23.470Z,9.68
2023-04-20T05:38:50.679Z,8.93
2023-04-20T05:41:17.868Z,16.10
2023-04-20T05:43:45.208Z,14.23
2023-04-20T05:46:12.370Z,23.10
2023-04-20T05:48:39.539Z,20.40
2023-04-20T05:51:06.721Z,22.00
2023-04-20T05:53:33.824Z,14.73
2023-04-20T05:56:00.888Z,9.60
2023-04-20T05:58:28.133Z,7.50
2023-04-20T06:00:55.228Z,14.82
2023-04-20T06:03:22.849Z,7.95
2023-04-20T06:05:50.791Z,8.18
2023-04-20T06:08:19.267Z,15.85
2023-04-20T06:10:46.724Z,15.18
2023-04-20T06:13:13.905Z,14.52
2023-04-20T06:15:41.408Z,9.55
2023-04-20T06:18:08.632Z,8.60
2023-04-20T06:20:35.802Z,13.82
2023-04-20T06:23:02.964Z,9.65
2023-04-20T06:25:30.214Z,9.02
2023-04-20T06:27:57.401Z,9.07
2023-04-20T06:30:24.503Z,8.35
2023-04-20T06:32:51.756Z,7.75
2023-04-20T06:35:18.952Z,11.68
2023-04-20T06:37:46.481Z,9.85
2023-04-20T06:40:16.128Z,11.57
2023-04-20T06:42:43.497Z,8.07
2023-04-20T06:45:11.604Z,8.32
2023-04-20T06:47:39.125Z,9.95
2023-04-20T06:50:09.620Z,8.93
2023-04-20T06:52:38.885Z,7.97
2023-04-20T06:55:07.032Z,8.73
2023-04-20T06:57:34.270Z,7.70
2023-04-20T07:00:01.716Z,8.20
2023-04-20T07:02:28.897Z,7.53
2023-04-20T07:05:01.768Z,7.57
2023-04-20T07:07:28.914Z,7.60
2023-04-20T07:09:56.007Z,8.73
2023-04-20T07:12:23.094Z,7.35
2023-04-20T07:14:50.318Z,7.40
2023-04-20T07:17:17.591Z,7.75
2023-04-20T07:19:44.673Z,7.20
2023-04-20T07:22:11.765Z,8.20
2023-04-20T07:24:38.836Z,7.80
2023-04-20T07:27:06.573Z,9.02
2023-04-20T07:29:34.182Z,8.48
2023-04-20T07:32:01.424Z,9.52
2023-04-20T07:34:36.268Z,9.38
2023-04-20T07:37:03.373Z,9.45
2023-04-20T07:39:30.804Z,8.00
2023-04-20T07:41:57.918Z,9.43
2023-04-20T07:44:24.988Z,9.00
2023-04-20T07:46:52.029Z,9.27
2023-04-20T07:49:19.362Z,9.88
2023-04-20T07:51:46.776Z,8.45
2023-04-20T07:54:13.834Z,8.43
2023-04-20T07:56:40.903Z,8.73
2023-04-20T07:59:08.775Z,8.57
2023-04-20T08:04:04.189Z,8.45
2023-04-20T08:06:31.931Z,8.50
2023-04-20T08:08:59.058Z,8.63
2023-04-20T08:11:26.997Z,11.13
2023-04-20T08:13:55.078Z,9.27
2023-04-20T08:16:24.071Z,9.02
2023-04-20T08:18:51.471Z,8.23
2023-04-20T08:21:18.822Z,9.95
2023-04-20T08:23:45.912Z,7.40
2023-04-20T08:26:16.051Z,9.68
2023-04-20T08:28:44.904Z,9.25
2023-04-20T08:31:14.182Z,9.95
2023-04-20T08:33:41.730Z,10.13
2023-04-20T08:36:08.876Z,9.63
2023-04-20T08:38:36.328Z,8.98
2023-04-20T08:41:03.549Z,9.93
2023-04-20T08:43:31.731Z,10.35
2023-04-20T08:46:00.364Z,9.15
2023-04-20T08:48:38.701Z,10.32
2023-04-20T08:51:06.419Z,10.25
2023-04-20T08:53:33.875Z,10.10
2023-04-20T08:56:01.231Z,9.40
2023-04-20T08:58:32.169Z,10.80
2023-04-20T09:01:01.072Z,10.80
2023-04-20T09:03:33.480Z,9.15
2023-04-20T09:06:00.883Z,9.52
2023-04-20T09:08:39.343Z,10.90
2023-04-20T09:11:06.768Z,10.45
2023-04-20T09:13:33.950Z,10.07
2023-04-20T09:16:13.684Z,9.98
2023-04-20T09:18:51.200Z,9.43
2023-04-20T09:21:18.275Z,10.90
2023-04-20T09:23:56.528Z,10.18
2023-04-20T09:26:27.145Z,9.25
2023-04-20T09:28:54.354Z,9.63
2023-04-20T09:31:22.953Z,9.18
2023-04-20T09:34:01.544Z,9.75
2023-04-20T09:36:39.159Z,10.95
2023-04-20T09:39:15.569Z,9.98
2023-04-20T09:41:43.830Z,10.07
2023-04-20T09:44:12.301Z,10.07
2023-04-20T09:46:40.723Z,9.63
2023-04-20T09:49:09.880Z,11.07
2023-04-20T09:51:45.035Z,9.23
2023-04-20T09:54:13.605Z,9.45
2023-04-20T09:56:41.192Z,9.95
2023-04-20T09:59:08.812Z,10.43
2023-04-20T10:01:38.192Z,10.73
2023-04-20T10:04:14.435Z,10.70
2023-04-20T10:07:03.281Z,10.07
2023-04-20T10:09:32.358Z,10.85
2023-04-20T10:12:07.411Z,8.88
2023-04-20T10:14:35.755Z,10.63
2023-04-20T10:17:08.986Z,11.30
2023-04-20T10:19:44.248Z,10.20
2023-04-20T10:22:29.220Z,8.98
2023-04-20T10:24:56.447Z,9.80
2023-04-20T10:27:24.158Z,10.18
2023-04-20T10:29:51.688Z,9.45
2023-04-20T10:32:27.237Z,10.15
2023-04-20T10:35:20.930Z,11.10
2023-04-20T10:37:50.947Z,10.18
2023-04-20T10:40:27.156Z,10.27
2023-04-20T10:42:54.359Z,9.95
2023-04-20T10:45:22.059Z,10.50
2023-04-20T10:47:49.901Z,9.85
2023-04-20T10:50:18.875Z,9.68
2023-04-20T10:52:46.222Z,10.77
2023-04-20T10:55:21.821Z,9.27
2023-04-20T10:57:54.205Z,9.95
2023-04-20T11:00:28.731Z,9.10
2023-04-20T11:02:59.795Z,9.93
2023-04-20T11:05:27.699Z,9.90
2023-04-20T11:07:56.668Z,10.63
2023-04-20T11:10:36.732Z,10.18
2023-04-20T11:13:03.865Z,10.20
2023-04-20T11:15:35.266Z,8.75
2023-04-20T11:18:10.253Z,8.25
2023-04-20T11:20:38.315Z,9.10
2023-04-20T11:23:06.054Z,9.90
2023-04-20T11:28:08.908Z,9.00
2023-04-20T11:30:42.770Z,8.68
2023-04-20T11:33:11.001Z,10.32
2023-04-20T11:35:40.037Z,9.20
2023-04-20T11:38:08.380Z,9.38
2023-04-20T11:40:36.481Z,9.68
2023-04-20T11:43:04.837Z,9.50
2023-04-20T11:45:36.893Z,9.52
2023-04-20T11:48:05.792Z,9.52
2023-04-20T11:50:33.004Z,9.98
2023-04-20T11:53:00.301Z,10.85
2023-04-20T11:55:27.422Z,10.07
2023-04-20T11:57:54.962Z,11.13
2023-04-20T12:00:22.427Z,8.53
2023-04-20T12:02:49.744Z,9.10
2023-04-20T12:05:17.043Z,9.80
2023-04-20T12:07:44.211Z,8.90
2023-04-20T12:10:11.439Z,9.05
2023-04-20T12:12:38.560Z,9.90
2023-04-20T12:15:06.698Z,9.32
2023-04-20T12:17:33.975Z,9.70
2023-04-20T12:20:01.170Z,8.93
2023-04-20T12:22:28.490Z,11.68
2023-04-20T12:24:55.570Z,8.80
2023-04-20T12:27:22.728Z,10.30
2023-04-20T12:29:49.919Z,10.02
2023-04-20T12:32:17.067Z,9.80
2023-04-20T12:34:44.221Z,9.88
2023-04-20T12:37:11.308Z,9.55
2023-04-20T12:39:38.472Z,8.32
2023-04-20T12:42:05.658Z,9.40
2023-04-20T12:44:33.028Z,10.07
2023-04-20T12:47:00.228Z,9.63
2023-04-20T12:49:27.370Z,9.20
2023-04-20T12:51:54.479Z,10.70
2023-04-20T12:54:21.621Z,9.75
2023-04-20T12:56:49.036Z,10.90
2023-04-20T12:59:16.131Z,10.98
2023-04-20T13:01:43.302Z,10.45
2023-04-20T13:04:11.172Z,9.77
2023-04-20T13:06:38.648Z,9.80
2023-04-20T13:09:07.112Z,9.93
2023-04-20T13:11:34.289Z,10.15
2023-04-20T13:14:01.514Z,9.63
2023-04-20T13:16:29.483Z,10.95
2023-04-20T13:18:56.821Z,8.63
2023-04-20T13:21:23.926Z,9.57
2023-04-20T13:23:51.317Z,9.68
2023-04-20T13:26:18.442Z,9.57
2023-04-20T13:28:45.653Z,9.27
2023-04-20T13:31:12.821Z,8.63
2023-04-20T13:33:39.979Z,8.55
2023-04-20T13:36:08.759Z,9.02
2023-04-20T13:38:36.018Z,9.98
2023-04-20T13:41:03.218Z,10.15
2023-04-20T13:43:30.314Z,9.00
2023-04-20T13:45:58.101Z,10.35
2023-04-20T13:50:56.169Z,9.18
2023-04-20T13:53:23.608Z,10.05
2023-04-20T13:55:50.936Z,9.98
2023-04-20T13:58:18.078Z,9.43
2023-04-20T14:00:46.289Z,10.65
2023-04-20T14:03:14.308Z,10.40
2023-04-20T14:05:42.257Z,9.88
2023-04-20T14:08:09.756Z,10.55
2023-04-20T14:10:40.546Z,9.68
2023-04-20T14:13:10.019Z,10.15
2023-04-20T14:15:40.016Z,10.57
2023-04-20T14:18:07.735Z,10.45
2023-04-20T14:20:37.873Z,11.00
2023-04-20T14:23:09.263Z,8.85
2023-04-20T14:25:36.775Z,10.57
2023-04-20T14:28:07.049Z,9.52
2023-04-20T14:30:34.193Z,9.95
2023-04-20T14:33:03.207Z,10.45
2023-04-20T14:35:34.118Z,9.98
2023-04-20T14:38:01.551Z,9.45
2023-04-20T14:40:29.179Z,10.48
2023-04-20T14:42:57.100Z,9.07
2023-04-20T14:47:57.710Z,8.60
2023-04-20T14:50:31.559Z,9.48
2023-04-20T14:52:58.636Z,8.70
2023-04-20T14:55:26.207Z,9.25
2023-04-20T14:57:58.923Z,7.95
2023-04-20T15:00:36.032Z,8.55
2023-04-20T15:03:03.970Z,9.18
2023-04-20T15:05:33.088Z,8.57
2023-04-20T15:08:04.331Z,9.23
2023-04-20T15:10:38.347Z,8.98
2023-04-20T15:13:09.732Z,9.43
2023-04-20T15:15:48.246Z,9.38
2023-04-20T15:18:20.905Z,9.27
2023-04-20T15:20:48.382Z,8.73
2023-04-20T15:23:19.763Z,8.10
2023-04-20T15:25:50.436Z,8.60
2023-04-20T15:28:23.022Z,9.23
2023-04-20T15:30:55.288Z,10.45
2023-04-20T15:33:22.576Z,9.10
2023-04-20T15:35:50.490Z,8.88
2023-04-20T15:38:25.381Z,8.80
2023-04-20T15:40:53.903Z,8.77
2023-04-20T15:43:21.293Z,8.65
2023-04-20T15:45:51.476Z,9.10
2023-04-20T15:48:19.501Z,8.55
2023-04-20T15:50:51.626Z,9.52
2023-04-20T15:53:34.290Z,9.02
2023-04-20T15:56:01.647Z,8.13
2023-04-20T16:01:01.053Z,7.57
2023-04-20T16:03:29.718Z,7.70
2023-04-20T16:05:57.306Z,6.93
2023-04-20T16:08:27.722Z,6.88
2023-04-20T16:10:57.655Z,7.28
2023-04-20T16:13:32.676Z,7.38
2023-04-20T16:16:02.636Z,7.95
2023-04-20T16:18:32.903Z,6.38
2023-04-20T16:21:00.221Z,6.50
2023-04-20T16:23:31.497Z,7.47
2023-04-20T16:26:05.423Z,6.82
2023-04-20T16:28:35.881Z,7.03
2023-04-20T16:31:03.169Z,6.45
2023-04-20T16:33:32.141Z,6.22
2023-04-20T16:36:00.457Z,6.75
2023-04-20T16:38:27.757Z,6.22
2023-04-20T16:40:55.017Z,7.38
2023-04-20T16:43:22.510Z,6.53
2023-04-20T16:45:49.908Z,7.43
2023-04-20T16:48:17.109Z,6.55
2023-04-20T16:50:44.320Z,5.63
2023-04-20T16:53:11.418Z,7.18
2023-04-20T16:55:38.551Z,6.57
2023-04-20T16:58:05.698Z,7.30
2023-04-20T17:00:33.214Z,7.18
2023-04-20T17:03:03.782Z,6.70
2023-04-20T17:05:31.225Z,5.97
2023-04-20T17:07:58.428Z,6.43
2023-04-20T17:10:25.674Z,6.10
2023-04-20T17:12:53.035Z,5.63
2023-04-20T17:15:20.818Z,6.53
2023-04-20T17:17:50.818Z,6.25
2023-04-20T17:20:18.267Z,7.13
2023-04-20T17:22:46.711Z,5.57
2023-04-20T17:25:14.762Z,6.75
2023-04-20T17:27:43.658Z,6.18
2023-04-20T17:30:17.395Z,6.95
2023-04-20T17:32:44.523Z,7.18
2023-04-20T17:35:11.845Z,7.50
2023-04-20T17:37:39.187Z,6.38
2023-04-20T17:40:07.684Z,7.43
2023-04-20T17:42:34.841Z,7.60
2023-04-20T17:45:01.977Z,8.02
2023-04-20T17:47:31.599Z,7.28
2023-04-20T17:49:59.908Z,7.55
2023-04-20T17:52:28.266Z,8.05
2023-04-20T17:54:55.619Z,7.82
2023-04-20T17:57:22.820Z,8.15
2023-04-20T17:59:50.669Z,8.02
2023-04-20T18:02:18.238Z,7.28
2023-04-20T18:04:46.038Z,8.35
2023-04-20T18:09:43.548Z,8.10
2023-04-20T18:12:11.508Z,8.52
2023-04-20T18:14:40.584Z,8.23
2023-04-20T18:17:08.384Z,8.52
2023-04-20T18:19:38.418Z,7.95
2023-04-20T18:22:05.783Z,9.40
2023-04-20T18:24:33.114Z,9.35
2023-04-20T18:27:01.042Z,8.52
2023-04-20T18:32:01.750Z,8.63
2023-04-20T18:34:34.700Z,7.95
2023-04-20T18:37:01.871Z,8.90
2023-04-20T18:39:30.007Z,8.15
2023-04-20T18:41:59.986Z,8.05
2023-04-20T18:44:28.389Z,7.53
2023-04-20T18:47:04.875Z,9.23
2023-04-20T18:49:32.277Z,8.68
2023-04-20T18:51:59.683Z,8.48
2023-04-20T18:54:26.919Z,9.02
2023-04-20T18:56:54.835Z,9.05
2023-04-20T19:01:52.601Z,8.43
2023-04-20T19:04:20.640Z,7.80
2023-04-20T19:06:48.399Z,7.60
2023-04-20T19:09:18.599Z,9.60
2023-04-20T19:11:45.883Z,8.60
2023-04-20T19:14:15.932Z,8.57
2023-04-20T19:16:43.278Z,7.78
2023-04-20T19:19:10.910Z,8.55
2023-04-20T19:21:40.402Z,9.23
2023-04-20T19:24:07.916Z,8.50
2023-04-20T19:26:37.813Z,9.95
2023-04-20T19:29:05.953Z,8.93
2023-04-20T19:31:37.855Z,9.13
2023-04-20T19:34:07.861Z,9.60
2023-04-20T19:36:35.264Z,8.60
2023-04-20T19:41:31.179Z,8.93
2023-04-20T19:43:59.428Z,9.25
2023-04-20T19:46:27.180Z,10.82
2023-04-20T19:48:57.531Z,9.80
2023-04-20T19:51:28.417Z,9.18
2023-04-20T19:53:56.545Z,9.27
2023-04-20T19:56:27.462Z,8.90
2023-04-20T19:58:54.749Z,9.93
2023-04-20T20:01:21.892Z,8.80
2023-04-20T20:03:49.844Z,8.65
2023-04-20T20:06:22.958Z,8.18
2023-04-20T20:08:50.676Z,9.25
2023-04-20T20:11:17.925Z,8.48
2023-04-20T20:13:45.337Z,8.60
2023-04-20T20:16:12.527Z,8.95
2023-04-20T20:18:39.946Z,9.43
2023-04-20T20:21:07.463Z,10.02
2023-04-20T20:23:34.603Z,8.15
2023-04-20T20:26:02.663Z,10.68
2023-04-20T20:28:29.867Z,9.15
2023-04-20T20:30:57.288Z,8.10
2023-04-20T20:33:24.480Z,9.95
2023-04-20T20:35:52.563Z,8.70
2023-04-20T20:38:21.006Z,9.60
2023-04-20T20:40:50.552Z,7.65
2023-04-20T20:43:19.450Z,10.23
2023-04-20T20:45:47.400Z,9.00
2023-04-20T20:48:14.552Z,9.27
2023-04-20T20:50:41.740Z,9.25
2023-04-20T20:53:08.989Z,10.13
2023-04-20T20:55:36.148Z,8.82
2023-04-20T20:58:03.359Z,10.60
2023-04-20T21:00:30.851Z,10.10
2023-04-20T21:02:59.018Z,8.77
2023-04-20T21:05:26.538Z,8.48
2023-04-20T21:07:54.295Z,10.43
2023-04-20T21:10:21.416Z,10.75
2023-04-20T21:12:48.623Z,9.77
2023-04-20T21:15:16.133Z,10.88
2023-04-20T21:17:43.412Z,10.98
2023-04-20T21:20:11.535Z,10.73
2023-04-20T21:22:38.735Z,10.13
2023-04-20T21:25:06.556Z,9.80
2023-04-20T21:27:33.709Z,10.70
2023-04-20T21:30:00.870Z,11.00
2023-04-20T21:32:28.282Z,10.73
2023-04-20T21:34:55.525Z,10.45
2023-04-20T21:37:22.675Z,11.15
2023-04-20T21:39:51.150Z,10.55
2023-04-20T21:42:18.294Z,11.15
2023-04-20T21:44:48.248Z,9.77
2023-04-20T21:47:15.485Z,11.00
2023-04-20T21:49:46.448Z,10.60
2023-04-20T21:52:14.571Z,10.55
2023-04-20T21:54:42.030Z,12.20
2023-04-20T21:57:13.828Z,11.63
2023-04-20T21:59:40.996Z,10.55
2023-04-20T22:02:08.310Z,10.77
2023-04-20T22:04:35.846Z,11.88
2023-04-20T22:07:04.175Z,11.00
2023-04-20T22:09:31.363Z,11.77
2023-04-20T22:12:04.530Z,10.45
2023-04-20T22:14:31.804Z,11.77
2023-04-20T22:16:59.521Z,9.85
2023-04-20T22:19:29.407Z,10.38
2023-04-20T22:21:58.713Z,11.80
2023-04-20T22:24:25.958Z,11.93
2023-04-20T22:26:53.031Z,12.13
2023-04-20T22:29:20.946Z,11.85
2023-04-20T22:31:48.310Z,10.52
2023-04-20T22:34:15.987Z,12.15
2023-04-20T22:36:43.118Z,11.70
2023-04-20T22:39:10.258Z,10.75
2023-04-20T22:41:37.534Z,9.85
2023-04-20T22:44:04.759Z,10.73
2023-04-20T22:46:32.017Z,9.90
2023-04-20T22:48:59.228Z,9.73
2023-04-20T22:51:29.033Z,10.32
2023-04-20T22:53:56.177Z,10.25
2023-04-20T22:56:24.597Z,10.27
2023-04-20T22:58:51.755Z,10.77
2023-04-20T23:01:19.053Z,11.27
2023-04-20T23:03:46.361Z,10.93
2023-04-20T23:06:18.770Z,10.63
2023-04-20T23:08:46.840Z,10.60
2023-04-20T23:11:16.435Z,10.65
2023-04-20T23:13:44.366Z,9.23
2023-04-20T23:18:39.088Z,10.88
2023-04-20T23:21:06.414Z,9.82
2023-04-20T23:23:33.477Z,10.45
2023-04-20T23:26:00.762Z,9.55
2023-04-20T23:28:27.878Z,10.93
2023-04-20T23:30:55.009Z,9.30
2023-04-20T23:33:22.595Z,9.98
2023-04-20T23:35:49.864Z,11.05
2023-04-20T23:38:18.133Z,9.95
2023-04-20T23:40:45.449Z,10.95
2023-04-20T23:43:12.538Z,10.68
2023-04-20T23:45:39.655Z,10.77
2023-04-20T23:48:07.344Z,10.88
2023-04-20T23:50:36.937Z,9.60
2023-04-20T23:53:05.693Z,10.60
2023-04-20T23:55:32.915Z,10.00
2023-04-20T23:58:00.373Z,10.40
